sensor_id;sensor_type;location;lat;lon;timestamp;pressure;altitude;pressure_sealevel;temperature;humidity
38038;BME280;23843;51.320;12.340;2023-06-26T00:01:57;100360.09;;;20.90;100.00
38038;BME280;23843;51.320;12.340;2023-06-26T00:04:23;100363.94;;;20.88;100.00
38038;BME280;23843;51.320;12.340;2023-06-26T00:06:48;100362.53;;;20.84;100.00
38038;BME280;23843;51.320;12.340;2023-06-26T00:09:15;100353.03;;;20.80;100.00
38038;BME280;23843;51.320;12.340;2023-06-26T00:11:43;100356.19;;;20.75;100.00
38038;BME280;23843;51.320;12.340;2023-06-26T00:14:09;100352.09;;;20.71;100.00
38038;BME280;23843;51.320;12.340;2023-06-26T00:16:34;100358.47;;;20.70;100.00
38038;BME280;23843;51.320;12.340;2023-06-26T00:19:02;100356.22;;;20.65;100.00
38038;BME280;23843;51.320;12.340;2023-06-26T00:21:28;100351.97;;;20.63;100.00
38038;BME280;23843;51.320;12.340;2023-06-26T00:23:53;100347.75;;;20.60;100.00
38038;BME280;23843;51.320;12.340;2023-06-26T00:26:20;100346.06;;;20.59;100.00
38038;BME280;23843;51.320;12.340;2023-06-26T00:28:46;100350.75;;;20.57;100.00
38038;BME280;23843;51.320;12.340;2023-06-26T00:31:11;100349.16;;;20.55;100.00
38038;BME280;23843;51.320;12.340;2023-06-26T00:33:37;100349.47;;;20.51;100.00
38038;BME280;23843;51.320;12.340;2023-06-26T00:36:02;100342.38;;;20.50;100.00
38038;BME280;23843;51.320;12.340;2023-06-26T00:38:28;100351.44;;;20.49;100.00
38038;BME280;23843;51.320;12.340;2023-06-26T00:40:53;100349.78;;;20.48;100.00
38038;BME280;23843;51.320;12.340;2023-06-26T00:43:20;100355.28;;;20.47;100.00
38038;BME280;23843;51.320;12.340;2023-06-26T00:45:47;100352.03;;;20.43;100.00
38038;BME280;23843;51.320;12.340;2023-06-26T00:48:16;100345.25;;;20.39;100.00
38038;BME280;23843;51.320;12.340;2023-06-26T00:50:42;100336.78;;;20.34;100.00
38038;BME280;23843;51.320;12.340;2023-06-26T00:53:09;100336.78;;;20.34;100.00
38038;BME280;23843;51.320;12.340;2023-06-26T00:55:34;100342.59;;;20.29;100.00
38038;BME280;23843;51.320;12.340;2023-06-26T00:58:00;100338.50;;;20.25;100.00
38038;BME280;23843;51.320;12.340;2023-06-26T01:00:29;100340.34;;;20.25;100.00
38038;BME280;23843;51.320;12.340;2023-06-26T01:02:55;100341.31;;;20.24;100.00
38038;BME280;23843;51.320;12.340;2023-06-26T01:05:20;100337.09;;;20.21;100.00
38038;BME280;23843;51.320;12.340;2023-06-26T01:07:49;100339.22;;;20.18;100.00
38038;BME280;23843;51.320;12.340;2023-06-26T01:10:15;100334.84;;;20.17;100.00
38038;BME280;23843;51.320;12.340;2023-06-26T01:12:41;100327.06;;;20.14;100.00
38038;BME280;23843;51.320;12.340;2023-06-26T01:15:07;100329.19;;;20.10;100.00
38038;BME280;23843;51.320;12.340;2023-06-26T01:17:37;100319.84;;;20.04;100.00
38038;BME280;23843;51.320;12.340;2023-06-26T01:20:04;100321.00;;;20.02;100.00
38038;BME280;23843;51.320;12.340;2023-06-26T01:22:36;100318.47;;;20.00;100.00
38038;BME280;23843;51.320;12.340;2023-06-26T01:25:12;100322.44;;;19.96;100.00
38038;BME280;23843;51.320;12.340;2023-06-26T01:27:40;100314.66;;;19.93;100.00
38038;BME280;23843;51.320;12.340;2023-06-26T01:30:08;100314.66;;;19.93;100.00
38038;BME280;23843;51.320;12.340;2023-06-26T01:32:34;100312.94;;;19.92;100.00
38038;BME280;23843;51.320;12.340;2023-06-26T01:35:00;100307.03;;;19.88;100.00
38038;BME280;23843;51.320;12.340;2023-06-26T01:37:27;100315.38;;;19.85;100.00
38038;BME280;23843;51.320;12.340;2023-06-26T01:39:52;100315.22;;;19.87;100.00
38038;BME280;23843;51.320;12.340;2023-06-26T01:42:18;100306.31;;;19.86;100.00
38038;BME280;23843;51.320;12.340;2023-06-26T01:44:46;100310.72;;;19.87;100.00
38038;BME280;23843;51.320;12.340;2023-06-26T01:47:16;100304.47;;;19.87;100.00
38038;BME280;23843;51.320;12.340;2023-06-26T01:49:47;100302.91;;;19.84;100.00
38038;BME280;23843;51.320;12.340;2023-06-26T01:52:28;100303.09;;;19.83;100.00
38038;BME280;23843;51.320;12.340;2023-06-26T01:55:02;100300.66;;;19.80;100.00
38038;BME280;23843;51.320;12.340;2023-06-26T01:57:30;100298.25;;;19.77;100.00
38038;BME280;23843;51.320;12.340;2023-06-26T01:59:58;100294.16;;;19.73;100.00
38038;BME280;23843;51.320;12.340;2023-06-26T02:02:30;100300.53;;;19.72;100.00
38038;BME280;23843;51.320;12.340;2023-06-26T02:04:55;100294.16;;;19.73;100.00
38038;BME280;23843;51.320;12.340;2023-06-26T02:07:21;100293.63;;;19.69;100.00
38038;BME280;23843;51.320;12.340;2023-06-26T02:09:46;100296.56;;;19.66;100.00
38038;BME280;23843;51.320;12.340;2023-06-26T02:12:12;100293.03;;;19.65;100.00
38038;BME280;23843;51.320;12.340;2023-06-26T02:14:37;100296.69;;;19.64;100.00
38038;BME280;23843;51.320;12.340;2023-06-26T02:17:08;100294.31;;;19.61;100.00
38038;BME280;23843;51.320;12.340;2023-06-26T02:19:36;100285.66;;;19.58;100.00
38038;BME280;23843;51.320;12.340;2023-06-26T02:22:04;100284.09;;;19.55;100.00
38038;BME280;23843;51.320;12.340;2023-06-26T02:24:30;100284.28;;;19.54;100.00
38038;BME280;23843;51.320;12.340;2023-06-26T02:26:58;100282.56;;;19.53;100.00
38038;BME280;23843;51.320;12.340;2023-06-26T02:29:24;100283.69;;;19.50;100.00
38038;BME280;23843;51.320;12.340;2023-06-26T02:31:49;100286.25;;;19.52;100.00
38038;BME280;23843;51.320;12.340;2023-06-26T02:34:16;100287.69;;;19.46;100.00
38038;BME280;23843;51.320;12.340;2023-06-26T02:36:42;100286.38;;;19.40;100.00
38038;BME280;23843;51.320;12.340;2023-06-26T02:39:07;100287.94;;;19.43;100.00
38038;BME280;23843;51.320;12.340;2023-06-26T02:41:32;100297.00;;;19.42;100.00
38038;BME280;23843;51.320;12.340;2023-06-26T02:43:58;100289.91;;;19.41;100.00
38038;BME280;23843;51.320;12.340;2023-06-26T02:46:23;100283.84;;;19.39;100.00
38038;BME280;23843;51.320;12.340;2023-06-26T02:48:49;100288.66;;;19.35;100.00
38038;BME280;23843;51.320;12.340;2023-06-26T02:51:16;100288.81;;;19.34;100.00
38038;BME280;23843;51.320;12.340;2023-06-26T02:53:41;100277.78;;;19.37;100.00
38038;BME280;23843;51.320;12.340;2023-06-26T02:56:07;100282.56;;;19.33;100.00
38038;BME280;23843;51.320;12.340;2023-06-26T02:58:32;100281.16;;;19.29;100.00
38038;BME280;23843;51.320;12.340;2023-06-26T03:00:57;100277.91;;;19.25;100.00
38038;BME280;23843;51.320;12.340;2023-06-26T03:03:23;100280.75;;;19.24;100.00
38038;BME280;23843;51.320;12.340;2023-06-26T03:05:48;100273.53;;;19.24;100.00
38038;BME280;23843;51.320;12.340;2023-06-26T03:08:15;100275.50;;;19.22;100.00
38038;BME280;23843;51.320;12.340;2023-06-26T03:10:41;100271.25;;;19.20;100.00
38038;BME280;23843;51.320;12.340;2023-06-26T03:13:12;100279.59;;;19.17;100.00
38038;BME280;23843;51.320;12.340;2023-06-26T03:15:40;100275.38;;;19.14;100.00
38038;BME280;23843;51.320;12.340;2023-06-26T03:18:06;100275.38;;;19.14;100.00
38038;BME280;23843;51.320;12.340;2023-06-26T03:20:34;100271.97;;;19.12;100.00
38038;BME280;23843;51.320;12.340;2023-06-26T03:22:59;100272.09;;;19.11;100.00
38038;BME280;23843;51.320;12.340;2023-06-26T03:25:26;100274.66;;;19.12;100.00
38038;BME280;23843;51.320;12.340;2023-06-26T03:27:52;100282.28;;;19.17;100.00
38038;BME280;23843;51.320;12.340;2023-06-26T03:30:17;100270.41;;;19.19;100.00
38038;BME280;23843;51.320;12.340;2023-06-26T03:32:43;100270.13;;;19.22;100.00
38038;BME280;23843;51.320;12.340;2023-06-26T03:35:08;100262.19;;;19.21;100.00
38038;BME280;23843;51.320;12.340;2023-06-26T03:37:34;100265.06;;;19.19;100.00
38038;BME280;23843;51.320;12.340;2023-06-26T03:39:59;100265.47;;;19.24;100.00
38038;BME280;23843;51.320;12.340;2023-06-26T03:42:26;100255.69;;;19.23;100.00
38038;BME280;23843;51.320;12.340;2023-06-26T03:44:51;100259.69;;;19.19;100.00
38038;BME280;23843;51.320;12.340;2023-06-26T03:47:17;100257.97;;;19.18;100.00
38038;BME280;23843;51.320;12.340;2023-06-26T03:49:45;100258.97;;;19.17;100.00
38038;BME280;23843;51.320;12.340;2023-06-26T03:52:11;100255.28;;;19.18;100.00
38038;BME280;23843;51.320;12.340;2023-06-26T03:54:36;100250.50;;;19.22;100.00
38038;BME280;23843;51.320;12.340;2023-06-26T03:57:02;100256.84;;;19.21;100.00
38038;BME280;23843;51.320;12.340;2023-06-26T03:59:29;100249.50;;;19.23;100.00
38038;BME280;23843;51.320;12.340;2023-06-26T04:01:54;100245.53;;;19.27;100.00
38038;BME280;23843;51.320;12.340;2023-06-26T04:04:20;100248.66;;;19.32;100.00
38038;BME280;23843;51.320;12.340;2023-06-26T04:06:45;100245.66;;;19.45;100.00
38038;BME280;23843;51.320;12.340;2023-06-26T04:09:14;100255.13;;;19.49;100.00
38038;BME280;23843;51.320;12.340;2023-06-26T04:11:42;100239.44;;;19.54;100.00
38038;BME280;23843;51.320;12.340;2023-06-26T04:14:13;100245.09;;;19.61;100.00
38038;BME280;23843;51.320;12.340;2023-06-26T04:16:40;100243.09;;;19.73;100.00
38038;BME280;23843;51.320;12.340;2023-06-26T04:19:06;100245.19;;;19.88;100.00
38038;BME280;23843;51.320;12.340;2023-06-26T04:21:31;100248.25;;;20.03;100.00
38038;BME280;23843;51.320;12.340;2023-06-26T04:23:57;100243.56;;;20.15;100.00
38038;BME280;23843;51.320;12.340;2023-06-26T04:26:25;100243.59;;;20.33;100.00
38038;BME280;23843;51.320;12.340;2023-06-26T04:28:53;100236.63;;;21.31;100.00
38038;BME280;23843;51.320;12.340;2023-06-26T04:31:19;100240.25;;;22.53;100.00
38038;BME280;23843;51.320;12.340;2023-06-26T04:33:46;100233.78;;;22.96;100.00
38038;BME280;23843;51.320;12.340;2023-06-26T04:36:12;100240.97;;;24.35;89.77
38038;BME280;23843;51.320;12.340;2023-06-26T04:38:37;100242.56;;;25.46;75.21
38038;BME280;23843;51.320;12.340;2023-06-26T04:41:03;100241.84;;;26.20;72.86
38038;BME280;23843;51.320;12.340;2023-06-26T04:43:31;100235.34;;;26.21;69.25
38038;BME280;23843;51.320;12.340;2023-06-26T04:45:57;100232.28;;;27.11;64.43
38038;BME280;23843;51.320;12.340;2023-06-26T04:48:23;100235.28;;;27.17;62.32
38038;BME280;23843;51.320;12.340;2023-06-26T04:50:52;100238.00;;;26.29;64.75
38038;BME280;23843;51.320;12.340;2023-06-26T04:53:21;100230.53;;;25.63;65.91
38038;BME280;23843;51.320;12.340;2023-06-26T04:55:46;100230.25;;;25.35;69.98
38038;BME280;23843;51.320;12.340;2023-06-26T04:58:14;100221.91;;;25.14;72.60
38038;BME280;23843;51.320;12.340;2023-06-26T05:00:40;100227.69;;;25.11;74.54
38038;BME280;23843;51.320;12.340;2023-06-26T05:03:05;100221.06;;;25.13;73.48
38038;BME280;23843;51.320;12.340;2023-06-26T05:05:34;100217.63;;;24.96;72.44
38038;BME280;23843;51.320;12.340;2023-06-26T05:08:16;100216.88;;;24.88;72.70
38038;BME280;23843;51.320;12.340;2023-06-26T05:10:42;100209.75;;;24.87;74.34
38038;BME280;23843;51.320;12.340;2023-06-26T05:13:07;100210.41;;;24.89;74.43
38038;BME280;23843;51.320;12.340;2023-06-26T05:15:33;100214.38;;;25.01;74.39
38038;BME280;23843;51.320;12.340;2023-06-26T05:17:59;100208.66;;;24.96;72.35
38038;BME280;23843;51.320;12.340;2023-06-26T05:20:24;100208.66;;;24.96;72.38
38038;BME280;23843;51.320;12.340;2023-06-26T05:22:50;100205.78;;;24.97;71.78
38038;BME280;23843;51.320;12.340;2023-06-26T05:25:18;100200.47;;;25.04;72.34
38038;BME280;23843;51.320;12.340;2023-06-26T05:27:44;100191.94;;;25.15;71.15
38038;BME280;23843;51.320;12.340;2023-06-26T05:30:11;100194.25;;;25.27;69.85
38038;BME280;23843;51.320;12.340;2023-06-26T05:32:38;100193.31;;;25.34;69.37
38038;BME280;23843;51.320;12.340;2023-06-26T05:35:11;100195.53;;;25.69;68.76
38038;BME280;23843;51.320;12.340;2023-06-26T05:37:42;100193.41;;;25.79;65.58
38038;BME280;23843;51.320;12.340;2023-06-26T05:40:09;100200.91;;;26.07;66.40
38038;BME280;23843;51.320;12.340;2023-06-26T05:42:37;100203.38;;;26.53;65.94
38038;BME280;23843;51.320;12.340;2023-06-26T05:45:03;100194.50;;;26.95;63.07
38038;BME280;23843;51.320;12.340;2023-06-26T05:49:55;100190.38;;;27.77;55.41
38038;BME280;23843;51.320;12.340;2023-06-26T05:52:21;100191.41;;;29.20;51.12
38038;BME280;23843;51.320;12.340;2023-06-26T05:54:47;100184.84;;;30.98;43.60
38038;BME280;23843;51.320;12.340;2023-06-26T05:57:13;100191.94;;;31.81;40.95
38038;BME280;23843;51.320;12.340;2023-06-26T05:59:40;100184.81;;;31.55;42.64
38038;BME280;23843;51.320;12.340;2023-06-26T06:02:06;100191.72;;;31.39;39.79
38038;BME280;23843;51.320;12.340;2023-06-26T06:04:31;100188.78;;;31.34;39.41
38038;BME280;23843;51.320;12.340;2023-06-26T06:06:56;100190.41;;;31.67;39.51
38038;BME280;23843;51.320;12.340;2023-06-26T06:09:22;100190.06;;;32.86;36.47
38038;BME280;23843;51.320;12.340;2023-06-26T06:11:47;100188.09;;;34.46;36.04
38038;BME280;23843;51.320;12.340;2023-06-26T06:14:13;100178.59;;;35.45;31.98
38038;BME280;23843;51.320;12.340;2023-06-26T06:16:40;100172.00;;;36.46;30.83
38038;BME280;23843;51.320;12.340;2023-06-26T06:19:05;100165.22;;;37.45;28.00
38038;BME280;23843;51.320;12.340;2023-06-26T06:21:31;100169.59;;;38.31;27.12
38038;BME280;23843;51.320;12.340;2023-06-26T06:23:56;100175.00;;;38.89;27.15
38038;BME280;23843;51.320;12.340;2023-06-26T06:26:22;100177.00;;;39.29;25.09
38038;BME280;23843;51.320;12.340;2023-06-26T06:28:47;100176.09;;;39.70;25.44
38038;BME280;23843;51.320;12.340;2023-06-26T06:31:13;100168.41;;;40.42;24.67
38038;BME280;23843;51.320;12.340;2023-06-26T06:33:40;100172.06;;;41.16;24.92
38038;BME280;23843;51.320;12.340;2023-06-26T06:36:05;100172.66;;;41.72;22.42
38038;BME280;23843;51.320;12.340;2023-06-26T06:38:31;100159.50;;;41.53;21.51
38038;BME280;23843;51.320;12.340;2023-06-26T06:40:56;100159.31;;;41.74;24.41
38038;BME280;23843;51.320;12.340;2023-06-26T06:43:22;100167.25;;;42.90;21.33
38038;BME280;23843;51.320;12.340;2023-06-26T06:45:47;100163.28;;;42.72;20.79
38038;BME280;23843;51.320;12.340;2023-06-26T06:48:13;100161.75;;;42.85;22.63
38038;BME280;23843;51.320;12.340;2023-06-26T06:50:40;100152.66;;;42.61;22.54
38038;BME280;23843;51.320;12.340;2023-06-26T06:53:05;100154.06;;;43.29;20.57
38038;BME280;23843;51.320;12.340;2023-06-26T06:55:30;100145.38;;;43.30;20.01
38038;BME280;23843;51.320;12.340;2023-06-26T06:57:56;100148.94;;;43.50;20.18
38038;BME280;23843;51.320;12.340;2023-06-26T07:00:22;100143.13;;;44.43;20.01
38038;BME280;23843;51.320;12.340;2023-06-26T07:02:47;100143.06;;;44.71;19.38
38038;BME280;23843;51.320;12.340;2023-06-26T07:05:13;100142.59;;;44.77;18.02
38038;BME280;23843;51.320;12.340;2023-06-26T07:07:39;100142.75;;;44.95;18.58
38038;BME280;23843;51.320;12.340;2023-06-26T07:10:06;100140.81;;;45.04;18.90
38038;BME280;23843;51.320;12.340;2023-06-26T07:12:32;100132.91;;;44.97;19.47
38038;BME280;23843;51.320;12.340;2023-06-26T07:14:58;100128.88;;;45.12;19.40
38038;BME280;23843;51.320;12.340;2023-06-26T07:17:23;100137.63;;;45.50;17.87
38038;BME280;23843;51.320;12.340;2023-06-26T07:19:49;100131.50;;;44.63;19.72
38038;BME280;23843;51.320;12.340;2023-06-26T07:22:15;100133.97;;;42.42;20.55
38038;BME280;23843;51.320;12.340;2023-06-26T07:24:42;100126.47;;;40.43;22.64
38038;BME280;23843;51.320;12.340;2023-06-26T07:27:07;100138.75;;;39.01;24.07
38038;BME280;23843;51.320;12.340;2023-06-26T07:29:33;100135.63;;;37.78;25.90
38038;BME280;23843;51.320;12.340;2023-06-26T07:31:58;100139.34;;;36.59;27.97
38038;BME280;23843;51.320;12.340;2023-06-26T07:34:24;100137.06;;;36.07;29.07
38038;BME280;23843;51.320;12.340;2023-06-26T07:36:49;100132.88;;;35.61;28.84
38038;BME280;23843;51.320;12.340;2023-06-26T07:39:15;100134.34;;;35.51;29.82
38038;BME280;23843;51.320;12.340;2023-06-26T07:41:41;100132.88;;;35.27;30.51
38038;BME280;23843;51.320;12.340;2023-06-26T07:44:07;100129.69;;;35.01;30.64
38038;BME280;23843;51.320;12.340;2023-06-26T07:46:32;100123.31;;;34.67;30.89
38038;BME280;23843;51.320;12.340;2023-06-26T07:48:58;100127.50;;;34.58;31.95
38038;BME280;23843;51.320;12.340;2023-06-26T07:51:23;100130.06;;;34.47;32.27
38038;BME280;23843;51.320;12.340;2023-06-26T07:53:49;100134.00;;;34.23;32.69
38038;BME280;23843;51.320;12.340;2023-06-26T07:56:14;100127.97;;;33.97;32.94
38038;BME280;23843;51.320;12.340;2023-06-26T07:58:41;100125.75;;;33.71;32.75
38038;BME280;23843;51.320;12.340;2023-06-26T08:01:07;100123.94;;;33.64;34.07
38038;BME280;23843;51.320;12.340;2023-06-26T08:03:32;100126.22;;;33.44;33.81
38038;BME280;23843;51.320;12.340;2023-06-26T08:05:58;100117.75;;;33.22;34.82
38038;BME280;23843;51.320;12.340;2023-06-26T08:08:23;100113.69;;;33.24;35.04
38038;BME280;23843;51.320;12.340;2023-06-26T08:10:49;100117.84;;;33.15;35.05
38038;BME280;23843;51.320;12.340;2023-06-26T08:13:14;100110.66;;;33.02;36.18
38038;BME280;23843;51.320;12.340;2023-06-26T08:15:41;100106.44;;;32.88;34.91
38038;BME280;23843;51.320;12.340;2023-06-26T08:18:07;100108.09;;;32.89;35.23
38038;BME280;23843;51.320;12.340;2023-06-26T08:20:32;100107.41;;;32.94;35.63
38038;BME280;23843;51.320;12.340;2023-06-26T08:22:58;100104.41;;;32.83;36.11
38038;BME280;23843;51.320;12.340;2023-06-26T08:25:23;100109.28;;;32.81;35.71
38038;BME280;23843;51.320;12.340;2023-06-26T08:27:49;100106.94;;;32.85;35.96
38038;BME280;23843;51.320;12.340;2023-06-26T08:30:14;100112.75;;;32.89;36.98
38038;BME280;23843;51.320;12.340;2023-06-26T08:32:41;100102.03;;;32.99;35.22
38038;BME280;23843;51.320;12.340;2023-06-26T08:35:07;100099.22;;;33.17;36.41
38038;BME280;23843;51.320;12.340;2023-06-26T08:37:32;100097.56;;;33.40;34.76
38038;BME280;23843;51.320;12.340;2023-06-26T08:39:58;100093.16;;;33.39;35.10
38038;BME280;23843;51.320;12.340;2023-06-26T08:42:24;100096.84;;;33.33;35.55
38038;BME280;23843;51.320;12.340;2023-06-26T08:44:50;100096.00;;;33.32;35.39
38038;BME280;23843;51.320;12.340;2023-06-26T08:47:15;100094.91;;;33.45;35.28
38038;BME280;23843;51.320;12.340;2023-06-26T08:49:47;100093.38;;;33.25;34.55
38038;BME280;23843;51.320;12.340;2023-06-26T08:52:17;100092.88;;;33.29;35.49
38038;BME280;23843;51.320;12.340;2023-06-26T08:54:46;100091.13;;;33.34;35.24
38038;BME280;23843;51.320;12.340;2023-06-26T08:57:12;100085.25;;;33.42;34.59
38038;BME280;23843;51.320;12.340;2023-06-26T08:59:39;100085.38;;;33.59;34.31
38038;BME280;23843;51.320;12.340;2023-06-26T09:02:05;100085.59;;;33.70;34.77
38038;BME280;23843;51.320;12.340;2023-06-26T09:04:31;100088.44;;;33.75;34.08
38038;BME280;23843;51.320;12.340;2023-06-26T09:06:58;100087.28;;;33.71;34.09
38038;BME280;23843;51.320;12.340;2023-06-26T09:09:23;100094.31;;;33.66;33.61
38038;BME280;23843;51.320;12.340;2023-06-26T09:11:49;100089.53;;;33.74;33.92
38038;BME280;23843;51.320;12.340;2023-06-26T09:14:14;100090.38;;;33.74;34.21
38038;BME280;23843;51.320;12.340;2023-06-26T09:16:40;100086.41;;;33.82;33.59
38038;BME280;23843;51.320;12.340;2023-06-26T09:19:09;100082.81;;;33.81;34.23
38038;BME280;23843;51.320;12.340;2023-06-26T09:21:54;100078.03;;;33.88;33.53
38038;BME280;23843;51.320;12.340;2023-06-26T09:24:22;100074.25;;;34.18;33.26
38038;BME280;23843;51.320;12.340;2023-06-26T09:26:48;100073.91;;;34.15;32.71
38038;BME280;23843;51.320;12.340;2023-06-26T09:29:14;100072.97;;;34.09;32.77
38038;BME280;23843;51.320;12.340;2023-06-26T09:31:40;100074.97;;;34.14;33.16
38038;BME280;23843;51.320;12.340;2023-06-26T09:34:06;100077.13;;;34.12;32.98
38038;BME280;23843;51.320;12.340;2023-06-26T09:36:33;100067.41;;;34.21;33.14
38038;BME280;23843;51.320;12.340;2023-06-26T09:38:59;100065.66;;;34.15;33.56
38038;BME280;23843;51.320;12.340;2023-06-26T09:41:26;100066.63;;;34.08;33.39
38038;BME280;23843;51.320;12.340;2023-06-26T09:43:52;100062.56;;;33.99;32.29
38038;BME280;23843;51.320;12.340;2023-06-26T09:46:24;100058.22;;;33.75;31.19
38038;BME280;23843;51.320;12.340;2023-06-26T09:48:50;100059.94;;;33.52;31.22
38038;BME280;23843;51.320;12.340;2023-06-26T09:51:22;100055.75;;;33.50;33.21
38038;BME280;23843;51.320;12.340;2023-06-26T09:53:48;100049.16;;;33.51;32.45
38038;BME280;23843;51.320;12.340;2023-06-26T09:56:15;100051.91;;;33.51;32.96
38038;BME280;23843;51.320;12.340;2023-06-26T09:58:43;100049.06;;;33.57;32.83
38038;BME280;23843;51.320;12.340;2023-06-26T10:01:09;100045.25;;;33.46;32.28
38038;BME280;23843;51.320;12.340;2023-06-26T10:03:34;100048.94;;;33.52;32.58
38038;BME280;23843;51.320;12.340;2023-06-26T10:06:00;100046.47;;;33.39;32.04
38038;BME280;23843;51.320;12.340;2023-06-26T10:08:28;100047.19;;;33.22;32.59
38038;BME280;23843;51.320;12.340;2023-06-26T10:10:53;100052.78;;;33.16;31.83
38038;BME280;23843;51.320;12.340;2023-06-26T10:13:24;100037.75;;;33.18;33.36
38038;BME280;23843;51.320;12.340;2023-06-26T10:15:54;100043.47;;;33.29;32.42
38038;BME280;23843;51.320;12.340;2023-06-26T10:18:21;100048.03;;;33.23;32.45
38038;BME280;23843;51.320;12.340;2023-06-26T10:20:48;100030.25;;;33.14;32.93
38038;BME280;23843;51.320;12.340;2023-06-26T10:23:17;100030.84;;;33.04;33.45
38038;BME280;23843;51.320;12.340;2023-06-26T10:25:46;100028.69;;;33.18;33.61
38038;BME280;23843;51.320;12.340;2023-06-26T10:28:14;100022.38;;;33.17;32.25
38038;BME280;23843;51.320;12.340;2023-06-26T10:30:42;100014.13;;;33.29;32.60
38038;BME280;23843;51.320;12.340;2023-06-26T10:33:12;100011.34;;;33.41;33.21
38038;BME280;23843;51.320;12.340;2023-06-26T10:35:42;100010.97;;;33.49;33.11
38038;BME280;23843;51.320;12.340;2023-06-26T10:38:08;100009.44;;;33.53;32.55
38038;BME280;23843;51.320;12.340;2023-06-26T10:40:40;100015.16;;;33.52;32.56
38038;BME280;23843;51.320;12.340;2023-06-26T10:43:06;100009.78;;;33.45;32.66
38038;BME280;23843;51.320;12.340;2023-06-26T10:45:33;100007.66;;;33.47;32.63
38038;BME280;23843;51.320;12.340;2023-06-26T10:47:59;100014.34;;;33.51;32.64
38038;BME280;23843;51.320;12.340;2023-06-26T10:50:27;100011.31;;;33.53;32.37
38038;BME280;23843;51.320;12.340;2023-06-26T10:53:12;100013.16;;;33.59;32.26
38038;BME280;23843;51.320;12.340;2023-06-26T10:55:39;100003.81;;;33.48;31.46
38038;BME280;23843;51.320;12.340;2023-06-26T10:58:26;99999.78;;;33.39;30.94
38038;BME280;23843;51.320;12.340;2023-06-26T11:00:52;99993.69;;;33.37;31.41
38038;BME280;23843;51.320;12.340;2023-06-26T11:03:24;100003.84;;;33.36;31.89
38038;BME280;23843;51.320;12.340;2023-06-26T11:06:08;99992.88;;;33.36;31.31
38038;BME280;23843;51.320;12.340;2023-06-26T11:08:44;99991.44;;;33.34;32.89
38038;BME280;23843;51.320;12.340;2023-06-26T11:11:21;99988.34;;;33.30;31.78
38038;BME280;23843;51.320;12.340;2023-06-26T11:13:51;99985.97;;;33.22;31.04
38038;BME280;23843;51.320;12.340;2023-06-26T11:16:17;99977.03;;;33.03;31.01
38038;BME280;23843;51.320;12.340;2023-06-26T11:18:44;99978.69;;;33.04;32.82
38038;BME280;23843;51.320;12.340;2023-06-26T11:21:12;99978.09;;;33.14;31.99
38038;BME280;23843;51.320;12.340;2023-06-26T11:23:37;99974.63;;;33.18;31.94
38038;BME280;23843;51.320;12.340;2023-06-26T11:26:16;99977.88;;;33.15;30.85
38038;BME280;23843;51.320;12.340;2023-06-26T11:28:48;99972.72;;;32.83;30.97
38038;BME280;23843;51.320;12.340;2023-06-26T11:31:24;99970.34;;;32.75;31.30
38038;BME280;23843;51.320;12.340;2023-06-26T11:33:50;99969.03;;;32.78;32.43
38038;BME280;23843;51.320;12.340;2023-06-26T11:36:17;99962.94;;;32.76;31.57
38038;BME280;23843;51.320;12.340;2023-06-26T11:38:42;99958.66;;;32.68;31.54
38038;BME280;23843;51.320;12.340;2023-06-26T11:41:08;99960.09;;;32.71;31.58
38038;BME280;23843;51.320;12.340;2023-06-26T11:43:33;99958.53;;;32.75;32.15
38038;BME280;23843;51.320;12.340;2023-06-26T11:45:59;99964.88;;;32.75;31.34
38038;BME280;23843;51.320;12.340;2023-06-26T11:48:25;99952.47;;;32.61;30.43
38038;BME280;23843;51.320;12.340;2023-06-26T11:50:50;99955.91;;;32.56;31.11
38038;BME280;23843;51.320;12.340;2023-06-26T11:53:17;99948.72;;;32.55;31.90
38038;BME280;23843;51.320;12.340;2023-06-26T11:55:44;99951.25;;;32.57;31.10
38038;BME280;23843;51.320;12.340;2023-06-26T11:58:09;99940.66;;;32.60;31.90
38038;BME280;23843;51.320;12.340;2023-06-26T12:00:35;99947.78;;;32.50;31.26
38038;BME280;23843;51.320;12.340;2023-06-26T12:03:01;99955.63;;;32.34;29.30
38038;BME280;23843;51.320;12.340;2023-06-26T12:05:26;99953.78;;;32.28;30.34
38038;BME280;23843;51.320;12.340;2023-06-26T12:07:52;99950.00;;;32.29;31.15
38038;BME280;23843;51.320;12.340;2023-06-26T12:10:19;99947.38;;;32.34;30.90
38038;BME280;23843;51.320;12.340;2023-06-26T12:12:45;99951.78;;;32.35;30.83
38038;BME280;23843;51.320;12.340;2023-06-26T12:15:15;99939.63;;;32.43;31.73
38038;BME280;23843;51.320;12.340;2023-06-26T12:17:41;99940.06;;;32.58;32.04
38038;BME280;23843;51.320;12.340;2023-06-26T12:20:17;99944.34;;;32.66;31.43
38038;BME280;23843;51.320;12.340;2023-06-26T12:22:43;99933.09;;;32.44;31.26
38038;BME280;23843;51.320;12.340;2023-06-26T12:25:08;99942.97;;;32.33;31.14
38038;BME280;23843;51.320;12.340;2023-06-26T12:27:35;99937.47;;;32.33;31.80
38038;BME280;23843;51.320;12.340;2023-06-26T12:30:03;99934.16;;;32.31;31.04
38038;BME280;23843;51.320;12.340;2023-06-26T12:34:56;99932.06;;;32.57;32.36
38038;BME280;23843;51.320;12.340;2023-06-26T12:37:22;99933.59;;;32.76;31.32
38038;BME280;23843;51.320;12.340;2023-06-26T12:39:49;99931.69;;;32.89;31.31
38038;BME280;23843;51.320;12.340;2023-06-26T12:42:16;99923.56;;;32.94;31.25